Fort Worth, Texas
Current Conditions -  °F | °C
As of 9:53 PM on Wednesday 17 Dec 2014 (Local Time) from KFTW Reporting Station
Light Rain Light Rain  
Wind Chill: 42°   Ceiling: 300
Heat Index: 44°   Visibility: 3mi
Dew Point: 42°   Wind: 5mph
Humidity: 93%   Direction: 60°ENE
Pressure: 30.16"   Gusts: NA
Location:  32.75°N, 97.33°W
Report Text: KFTW 180353Z 06004KT 3SM -RA BR OVC003 07/06 A3016 RMK AO2 SLP214 P0001 T00670056
Loading
Personal Weather Stations






























Interactive Weather Map New forecast layout! Learn more

10-Day Weather Forecast

Advertisements
Track Severe Weather on mobile